createdAt,value
2018-11-28T00:00:17.854Z,1002.82
2018-11-28T00:01:17.839Z,1002.84
2018-11-28T00:02:17.827Z,1002.82
2018-11-28T00:03:17.809Z,1002.79
2018-11-28T00:04:17.793Z,1002.80
2018-11-28T00:05:17.778Z,1002.83
2018-11-28T00:06:17.764Z,1002.76
2018-11-28T00:07:17.748Z,1002.79
2018-11-28T00:08:17.732Z,1002.75
2018-11-28T00:09:17.717Z,1002.75
2018-11-28T00:10:17.702Z,1002.74
2018-11-28T00:11:17.687Z,1002.72
2018-11-28T00:12:17.670Z,1002.71
2018-11-28T00:13:17.658Z,1002.67
2018-11-28T00:14:17.641Z,1002.67
2018-11-28T00:15:17.629Z,1002.64
2018-11-28T00:16:17.611Z,1002.68
2018-11-28T00:17:17.599Z,1002.65
2018-11-28T00:18:17.580Z,1002.65
2018-11-28T00:19:17.566Z,1002.64
2018-11-28T00:20:17.550Z,1002.67
2018-11-28T00:21:17.535Z,1002.66
2018-11-28T00:22:17.529Z,1002.64
2018-11-28T00:23:17.510Z,1002.63
2018-11-28T00:24:17.492Z,1002.64
2018-11-28T00:25:17.475Z,1002.63
2018-11-28T00:26:17.711Z,1002.62
2018-11-28T00:27:17.445Z,1002.62
2018-11-28T00:28:17.429Z,1002.62
2018-11-28T00:29:17.414Z,1002.59
2018-11-28T00:30:17.399Z,1002.61
2018-11-28T00:31:17.384Z,1002.59
2018-11-28T00:32:17.369Z,1002.60
2018-11-28T00:33:17.353Z,1002.58
2018-11-28T00:34:17.338Z,1002.57
2018-11-28T00:35:17.326Z,1002.56
2018-11-28T00:36:17.308Z,1002.55
2018-11-28T00:37:17.294Z,1002.53
2018-11-28T00:38:17.280Z,1002.53
2018-11-28T00:39:17.262Z,1002.49
2018-11-28T00:40:17.246Z,1002.56
2018-11-28T00:41:17.231Z,1002.54
2018-11-28T00:42:17.215Z,1002.53
2018-11-28T00:43:17.204Z,1002.50
2018-11-28T00:44:17.192Z,1002.48
2018-11-28T00:45:17.172Z,1002.47
2018-11-28T00:46:17.154Z,1002.46
2018-11-28T00:47:17.139Z,1002.43
2018-11-28T00:48:17.123Z,1002.39
2018-11-28T00:49:17.108Z,1002.38
2018-11-28T00:50:17.093Z,1002.37
2018-11-28T00:51:17.078Z,1002.38
2018-11-28T00:52:17.064Z,1002.34
2018-11-28T00:53:17.046Z,1002.40
2018-11-28T00:54:17.031Z,1002.36
2018-11-28T00:55:17.017Z,1002.36
2018-11-28T00:56:17.001Z,1002.34
2018-11-28T00:57:17.236Z,1002.32
2018-11-28T00:58:16.970Z,1002.34
2018-11-28T00:59:16.955Z,1002.32
2018-11-28T01:00:16.944Z,1002.30
2018-11-28T01:01:16.924Z,1002.32
2018-11-28T01:02:16.910Z,1002.28
2018-11-28T01:03:16.894Z,1002.33
2018-11-28T01:04:16.878Z,1002.34
2018-11-28T01:05:16.870Z,1002.33
2018-11-28T01:06:17.051Z,1002.33
2018-11-28T01:07:16.834Z,1002.36
2018-11-28T01:08:16.855Z,1002.37
2018-11-28T01:09:16.803Z,1002.36
2018-11-28T01:10:16.789Z,1002.36
2018-11-28T01:11:16.776Z,1002.38
2018-11-28T01:12:16.757Z,1002.38
2018-11-28T01:13:16.742Z,1002.39
2018-11-28T01:14:16.728Z,1002.41
2018-11-28T01:15:16.714Z,1002.43
2018-11-28T01:16:16.698Z,1002.44
2018-11-28T01:17:16.683Z,1002.43
2018-11-28T01:18:16.668Z,1002.41
2018-11-28T01:19:16.656Z,1002.41
2018-11-28T01:20:16.641Z,1002.42
2018-11-28T01:21:16.623Z,1002.41
2018-11-28T01:22:16.608Z,1002.39
2018-11-28T01:23:16.594Z,1002.42
2018-11-28T01:24:16.599Z,1002.40
2018-11-28T01:25:16.567Z,1002.43
2018-11-28T01:26:16.549Z,1002.45
2018-11-28T01:27:16.534Z,1002.46
2018-11-28T01:28:16.769Z,1002.41
2018-11-28T01:29:16.504Z,1002.45
2018-11-28T01:30:16.494Z,1002.43
2018-11-28T01:31:16.476Z,1002.43
2018-11-28T01:32:16.460Z,1002.40
2018-11-28T01:33:16.446Z,1002.44
2018-11-28T01:34:16.433Z,1002.41
2018-11-28T01:35:16.416Z,1002.42
2018-11-28T01:36:16.401Z,1002.39
2018-11-28T01:37:16.387Z,1002.44
2018-11-28T01:38:16.380Z,1002.30
2018-11-28T01:39:16.364Z,1002.37
2018-11-28T01:40:16.346Z,1002.34
2018-11-28T01:41:16.329Z,1002.29
2018-11-28T01:42:16.315Z,1002.36
2018-11-28T01:43:16.350Z,1002.30
2018-11-28T01:44:16.285Z,1002.29
2018-11-28T01:45:16.275Z,1002.28
2018-11-28T01:46:16.257Z,1002.28
2018-11-28T01:47:16.242Z,1002.30
2018-11-28T01:48:16.277Z,1002.24
2018-11-28T01:49:16.213Z,1002.26
2018-11-28T01:50:16.199Z,1002.25
2018-11-28T01:51:16.184Z,1002.26
2018-11-28T01:52:16.170Z,1002.29
2018-11-28T01:53:16.158Z,1002.28
2018-11-28T01:54:16.141Z,1002.30
2018-11-28T01:55:16.127Z,1002.31
2018-11-28T01:56:16.113Z,1002.32
2018-11-28T01:57:16.100Z,1002.26
2018-11-28T01:58:16.137Z,1002.27
2018-11-28T01:59:16.071Z,1002.28
2018-11-28T02:00:16.056Z,1002.27
2018-11-28T02:01:16.042Z,1002.26
2018-11-28T02:02:16.028Z,1002.25
2018-11-28T02:03:16.024Z,1002.30
2018-11-28T02:04:15.999Z,1002.24
2018-11-28T02:05:15.986Z,1002.20
2018-11-28T02:06:15.972Z,1002.18
2018-11-28T02:07:15.958Z,1002.18
2018-11-28T02:08:15.945Z,1002.17
2018-11-28T02:09:15.929Z,1002.15
2018-11-28T02:10:15.915Z,1002.14
2018-11-28T02:11:15.901Z,1002.14
2018-11-28T02:12:15.886Z,1002.14
2018-11-28T02:13:15.872Z,1002.13
2018-11-28T02:14:15.859Z,1002.14
2018-11-28T02:15:15.844Z,1002.16
2018-11-28T02:16:15.833Z,1002.15
2018-11-28T02:17:15.817Z,1002.14
2018-11-28T02:18:15.801Z,1002.15
2018-11-28T02:19:15.837Z,1002.12
2018-11-28T02:20:15.771Z,1002.10
2018-11-28T02:21:15.757Z,1002.10
2018-11-28T02:22:15.743Z,1002.14
2018-11-28T02:23:15.729Z,1002.12
2018-11-28T02:24:15.715Z,1002.16
2018-11-28T02:25:15.699Z,1002.16
2018-11-28T02:26:15.686Z,1002.13
2018-11-28T02:27:15.672Z,1002.08
2018-11-28T02:28:15.658Z,1002.09
2018-11-28T02:29:15.644Z,1002.08
2018-11-28T02:30:15.635Z,1002.08
2018-11-28T02:31:15.615Z,1002.08
2018-11-28T02:32:15.600Z,1002.10
2018-11-28T02:33:15.585Z,1002.09
2018-11-28T02:34:15.621Z,1002.15
2018-11-28T02:35:15.559Z,1002.11
2018-11-28T02:36:16.752Z,1002.10
2018-11-28T02:37:15.532Z,1002.13
2018-11-28T02:38:15.515Z,1002.14
2018-11-28T02:39:15.500Z,1002.16
2018-11-28T02:40:15.487Z,1002.16
2018-11-28T02:41:15.470Z,1002.18
2018-11-28T02:42:15.456Z,1002.19
2018-11-28T02:43:15.443Z,1002.18
2018-11-28T02:44:15.428Z,1002.17
2018-11-28T02:45:15.416Z,1002.19
2018-11-28T02:46:15.401Z,1002.19
2018-11-28T02:47:15.388Z,1002.14
2018-11-28T02:48:15.390Z,1002.12
2018-11-28T02:49:15.363Z,1002.17
2018-11-28T02:50:15.346Z,1002.14
2018-11-28T02:51:15.333Z,1002.16
2018-11-28T02:52:15.318Z,1002.22
2018-11-28T02:53:15.306Z,1002.18
2018-11-28T02:54:15.292Z,1002.19
2018-11-28T02:55:15.294Z,1002.18
2018-11-28T02:56:15.264Z,1002.15
2018-11-28T02:57:15.252Z,1002.11
2018-11-28T02:58:15.238Z,1002.12
2018-11-28T02:59:15.225Z,1002.12
2018-11-28T03:00:15.413Z,1002.12
2018-11-28T03:01:15.197Z,1002.07
2018-11-28T03:02:15.186Z,1002.07
2018-11-28T03:03:15.173Z,1002.08
2018-11-28T03:04:15.157Z,1002.05
2018-11-28T03:05:15.147Z,1002.05
2018-11-28T03:06:15.130Z,1002.02
2018-11-28T03:07:15.117Z,1002.01
2018-11-28T03:08:15.106Z,1002.01
2018-11-28T03:09:15.091Z,1002.05
2018-11-28T03:10:15.078Z,1002.04
2018-11-28T03:11:15.065Z,1002.07
2018-11-28T03:12:15.051Z,1002.05
2018-11-28T03:13:15.042Z,1002.03
2018-11-28T03:14:15.024Z,1002.04
2018-11-28T03:15:15.011Z,1002.06
2018-11-28T03:16:14.997Z,1002.04
2018-11-28T03:17:14.985Z,1002.00
2018-11-28T03:19:14.959Z,1001.97
2018-11-28T03:20:15.002Z,1001.96
2018-11-28T03:21:14.932Z,1001.95
2018-11-28T03:22:14.919Z,1001.93
2018-11-28T03:23:14.906Z,1002.00
2018-11-28T03:24:14.892Z,1001.96
2018-11-28T03:25:14.880Z,1001.94
2018-11-28T03:26:14.868Z,1001.94
2018-11-28T03:27:14.855Z,1001.93
2018-11-28T03:28:14.841Z,1001.92
2018-11-28T03:29:14.829Z,1001.94
2018-11-28T03:30:14.828Z,1001.89
2018-11-28T03:31:14.802Z,1001.93
2018-11-28T03:32:14.789Z,1001.91
2018-11-28T03:33:14.782Z,1001.91
2018-11-28T03:34:14.762Z,1001.85
2018-11-28T03:35:14.750Z,1001.88
2018-11-28T03:36:14.735Z,1001.87
2018-11-28T03:37:14.723Z,1001.90
2018-11-28T03:38:14.709Z,1001.86
2018-11-28T03:39:14.697Z,1001.89
2018-11-28T03:40:14.682Z,1001.91
2018-11-28T03:41:14.672Z,1001.92
2018-11-28T03:42:14.657Z,1001.90
2018-11-28T03:43:14.643Z,1001.90
2018-11-28T03:44:14.630Z,1001.90
2018-11-28T03:45:14.619Z,1001.89
2018-11-28T03:46:14.613Z,1001.83
2018-11-28T03:47:14.797Z,1001.86
2018-11-28T03:48:14.579Z,1001.81
2018-11-28T03:49:14.574Z,1001.82
2018-11-28T03:50:14.553Z,1001.83
2018-11-28T03:51:14.539Z,1001.79
2018-11-28T03:52:14.524Z,1001.79
2018-11-28T03:53:14.513Z,1001.77
2018-11-28T03:54:14.499Z,1001.79
2018-11-28T03:55:14.485Z,1001.77
2018-11-28T03:56:14.473Z,1001.76
2018-11-28T03:57:14.461Z,1001.78
2018-11-28T03:58:14.451Z,1001.77
2018-11-28T03:59:14.435Z,1001.77
2018-11-28T04:00:14.424Z,1001.75
2018-11-28T04:01:14.409Z,1001.76
2018-11-28T04:02:14.395Z,1001.81
2018-11-28T04:03:14.383Z,1001.79
2018-11-28T04:04:14.372Z,1001.81
2018-11-28T04:05:14.355Z,1001.82
2018-11-28T04:06:14.344Z,1001.82
2018-11-28T04:07:14.331Z,1001.81
2018-11-28T04:08:14.318Z,1001.86
2018-11-28T04:09:14.305Z,1001.86
2018-11-28T04:10:14.298Z,1001.82
2018-11-28T04:11:14.279Z,1001.80
2018-11-28T04:12:14.266Z,1001.78
2018-11-28T04:13:14.256Z,1001.72
2018-11-28T04:14:14.245Z,1001.75
2018-11-28T04:15:14.228Z,1001.74
2018-11-28T04:16:14.214Z,1001.72
2018-11-28T04:17:14.202Z,1001.82
2018-11-28T04:18:14.189Z,1001.70
2018-11-28T04:19:14.177Z,1001.73
2018-11-28T04:20:14.164Z,1001.73
2018-11-28T04:21:14.150Z,1001.72
2018-11-28T04:22:14.139Z,1001.69
2018-11-28T04:23:14.124Z,1001.70
2018-11-28T04:24:14.111Z,1001.74
2018-11-28T04:25:14.099Z,1001.69
2018-11-28T04:26:14.085Z,1001.70
2018-11-28T04:27:14.073Z,1001.76
2018-11-28T04:28:14.060Z,1001.82
2018-11-28T04:29:14.046Z,1001.80
2018-11-28T04:30:14.035Z,1001.78
2018-11-28T04:31:14.021Z,1001.82
2018-11-28T04:32:14.010Z,1001.78
2018-11-28T04:33:13.995Z,1001.81
2018-11-28T04:34:13.982Z,1001.84
2018-11-28T04:35:13.970Z,1001.80
2018-11-28T04:36:13.957Z,1001.80
2018-11-28T04:37:13.948Z,1001.79
2018-11-28T04:38:13.932Z,1001.84
2018-11-28T04:39:13.920Z,1001.77
2018-11-28T04:40:13.907Z,1001.80
2018-11-28T04:41:13.893Z,1001.77
2018-11-28T04:42:13.881Z,1001.73
2018-11-28T04:43:13.868Z,1001.79
2018-11-28T04:44:13.854Z,1001.81
2018-11-28T04:45:13.843Z,1001.75
2018-11-28T04:46:13.830Z,1001.76
2018-11-28T04:47:14.218Z,1001.77
2018-11-28T04:48:13.811Z,1001.81
2018-11-28T04:49:13.791Z,1001.75
2018-11-28T04:50:13.779Z,1001.78
2018-11-28T04:51:13.765Z,1001.74
2018-11-28T04:52:13.751Z,1001.73
2018-11-28T04:53:13.750Z,1001.74
2018-11-28T04:54:13.734Z,1001.74
2018-11-28T04:55:13.713Z,1001.71
2018-11-28T04:56:13.700Z,1001.71
2018-11-28T04:57:13.686Z,1001.72
2018-11-28T04:58:13.674Z,1001.71
2018-11-28T04:59:13.661Z,1001.74
2018-11-28T05:00:13.650Z,1001.76
2018-11-28T05:01:13.639Z,1001.78
2018-11-28T05:02:13.622Z,1001.77
2018-11-28T05:03:13.613Z,1001.79
2018-11-28T05:04:13.657Z,1001.80
2018-11-28T05:05:13.583Z,1001.79
2018-11-28T05:06:13.571Z,1001.80
2018-11-28T05:07:13.558Z,1001.82
2018-11-28T05:08:13.550Z,1001.83
2018-11-28T05:09:13.532Z,1001.82
2018-11-28T05:10:13.519Z,1001.87
2018-11-28T05:11:13.509Z,1001.90
2018-11-28T05:12:13.493Z,1001.85
2018-11-28T05:13:13.480Z,1001.86
2018-11-28T05:14:13.468Z,1001.82
2018-11-28T05:15:13.456Z,1001.85
2018-11-28T05:16:13.446Z,1001.81
2018-11-28T05:17:13.429Z,1001.82
2018-11-28T05:18:13.419Z,1001.82
2018-11-28T05:19:13.404Z,1001.87
2018-11-28T05:20:13.402Z,1001.82
2018-11-28T05:21:13.381Z,1001.85
2018-11-28T05:22:13.367Z,1001.83
2018-11-28T05:23:13.354Z,1001.82
2018-11-28T05:24:13.340Z,1001.84
2018-11-28T05:25:13.328Z,1001.77
2018-11-28T05:26:13.315Z,1001.78
2018-11-28T05:27:13.302Z,1001.80
2018-11-28T05:28:13.289Z,1001.74
2018-11-28T05:29:13.276Z,1001.80
2018-11-28T05:30:13.264Z,1001.71
2018-11-28T05:31:13.252Z,1001.73
2018-11-28T05:32:13.238Z,1001.68
2018-11-28T05:33:13.225Z,1001.68
2018-11-28T05:34:13.213Z,1001.70
2018-11-28T05:35:13.203Z,1001.64
2018-11-28T05:36:13.189Z,1001.66
2018-11-28T05:37:13.178Z,1001.73
2018-11-28T05:38:13.162Z,1001.74
2018-11-28T05:39:13.151Z,1001.72
2018-11-28T05:40:13.136Z,1001.73
2018-11-28T05:41:13.124Z,1001.74
2018-11-28T05:42:13.112Z,1001.76
2018-11-28T05:43:13.105Z,1001.73
2018-11-28T05:44:13.086Z,1001.74
2018-11-28T05:45:13.080Z,1001.72
2018-11-28T05:46:13.061Z,1001.73
2018-11-28T05:47:13.049Z,1001.74
2018-11-28T05:48:13.036Z,1001.75
2018-11-28T05:49:15.199Z,1001.83
2018-11-28T05:50:13.014Z,1001.80
2018-11-28T05:51:12.998Z,1001.78
2018-11-28T05:52:12.985Z,1001.81
2018-11-28T05:53:12.973Z,1001.79
2018-11-28T05:54:12.961Z,1001.76
2018-11-28T05:55:12.948Z,1001.76
2018-11-28T05:56:12.935Z,1001.78
2018-11-28T05:57:12.923Z,1001.71
2018-11-28T05:58:12.910Z,1001.75
2018-11-28T05:59:12.898Z,1001.71
2018-11-28T06:00:13.086Z,1001.70
2018-11-28T06:01:12.878Z,1001.74
2018-11-28T06:02:12.861Z,1001.72
2018-11-28T06:03:12.849Z,1001.71
2018-11-28T06:04:12.834Z,1001.68
2018-11-28T06:05:12.821Z,1001.71
2018-11-28T06:06:12.810Z,1001.73
2018-11-28T06:07:12.797Z,1001.68
2018-11-28T06:08:12.785Z,1001.73
2018-11-28T06:09:12.772Z,1001.78
2018-11-28T06:10:12.759Z,1001.73
2018-11-28T06:11:12.746Z,1001.76
2018-11-28T06:12:12.733Z,1001.73
2018-11-28T06:13:12.721Z,1001.72
2018-11-28T06:14:12.708Z,1001.73
2018-11-28T06:15:12.698Z,1001.80
2018-11-28T06:16:12.683Z,1001.76
2018-11-28T06:17:12.672Z,1001.79
2018-11-28T06:18:12.660Z,1001.79
2018-11-28T06:19:12.648Z,1001.80
2018-11-28T06:20:12.635Z,1001.78
2018-11-28T06:21:12.621Z,1001.81
2018-11-28T06:22:12.609Z,1001.81
2018-11-28T06:23:12.596Z,1001.88
2018-11-28T06:24:12.581Z,1001.81
2018-11-28T06:25:16.312Z,1001.77
2018-11-28T06:26:12.560Z,1001.81
2018-11-28T06:27:12.546Z,1001.77
2018-11-28T06:28:12.532Z,1001.84
2018-11-28T06:29:12.721Z,1001.78
2018-11-28T06:30:12.506Z,1001.81
2018-11-28T06:31:12.494Z,1001.78
2018-11-28T06:32:12.481Z,1001.80
2018-11-28T06:33:12.469Z,1001.84
2018-11-28T06:34:12.456Z,1001.81
2018-11-28T06:35:12.443Z,1001.90
2018-11-28T06:36:12.443Z,1001.85
2018-11-28T06:37:12.418Z,1001.80
2018-11-28T06:38:12.405Z,1001.87
2018-11-28T06:39:12.394Z,1001.85
2018-11-28T06:40:12.380Z,1001.95
2018-11-28T06:41:12.367Z,1001.96
2018-11-28T06:42:12.355Z,1002.01
2018-11-28T06:43:12.344Z,1002.06
2018-11-28T06:44:12.329Z,1002.05
2018-11-28T06:45:12.520Z,1002.13
2018-11-28T06:46:12.326Z,1002.10
2018-11-28T06:47:12.292Z,1002.13
2018-11-28T06:48:12.279Z,1002.14
2018-11-28T06:49:12.275Z,1002.12
2018-11-28T06:50:12.457Z,1002.10
2018-11-28T06:51:12.246Z,1002.08
2018-11-28T06:52:12.229Z,1002.13
2018-11-28T06:53:12.217Z,1002.16
2018-11-28T06:54:12.205Z,1002.15
2018-11-28T06:55:12.194Z,1002.14
2018-11-28T06:56:12.185Z,1002.15
2018-11-28T06:57:12.168Z,1002.12
2018-11-28T06:58:12.159Z,1002.15
2018-11-28T06:59:12.143Z,1002.14
2018-11-28T07:00:12.131Z,1002.11
2018-11-28T07:01:12.122Z,1002.17
2018-11-28T07:02:12.106Z,1002.18
2018-11-28T07:03:12.102Z,1002.13
2018-11-28T07:04:12.081Z,1002.16
2018-11-28T07:05:12.072Z,1002.11
2018-11-28T07:06:12.056Z,1002.11
2018-11-28T07:07:12.047Z,1002.13
2018-11-28T07:08:12.032Z,1002.12
2018-11-28T07:09:12.019Z,1002.13
2018-11-28T07:10:12.007Z,1002.13
2018-11-28T07:11:11.997Z,1002.13
2018-11-28T07:12:11.981Z,1002.11
2018-11-28T07:13:11.973Z,1002.16
2018-11-28T07:14:11.957Z,1002.15
2018-11-28T07:15:11.957Z,1002.19
2018-11-28T07:16:11.939Z,1002.19
2018-11-28T07:17:11.920Z,1002.18
2018-11-28T07:18:11.914Z,1002.24
2018-11-28T07:19:11.896Z,1002.23
2018-11-28T07:20:11.882Z,1002.27
2018-11-28T07:21:11.877Z,1002.27
2018-11-28T07:22:11.857Z,1002.32
2018-11-28T07:23:11.848Z,1002.37
2018-11-28T07:24:11.833Z,1002.43
2018-11-28T07:25:11.820Z,1002.38
2018-11-28T07:26:11.808Z,1002.38
2018-11-28T07:27:11.801Z,1002.43
2018-11-28T07:28:11.782Z,1002.45
2018-11-28T07:29:11.775Z,1002.41
2018-11-28T07:30:11.758Z,1002.40
2018-11-28T07:31:11.752Z,1002.38
2018-11-28T07:32:11.737Z,1002.34
2018-11-28T07:33:11.773Z,1002.34
2018-11-28T07:34:11.711Z,1002.34
2018-11-28T07:35:11.701Z,1002.35
2018-11-28T07:36:11.685Z,1002.36
2018-11-28T07:37:11.673Z,1002.42
2018-11-28T07:38:11.665Z,1002.37
2018-11-28T07:39:11.656Z,1002.40
2018-11-28T07:40:11.635Z,1002.41
2018-11-28T07:41:11.625Z,1002.41
2018-11-28T07:42:11.817Z,1002.41
2018-11-28T07:43:11.599Z,1002.38
2018-11-28T07:44:11.587Z,1002.40
2018-11-28T07:45:11.575Z,1002.41
2018-11-28T07:46:11.567Z,1002.40
2018-11-28T07:47:11.554Z,1002.39
2018-11-28T07:48:11.538Z,1002.35
2018-11-28T07:49:11.526Z,1002.41
2018-11-28T07:50:11.514Z,1002.44
2018-11-28T07:51:11.506Z,1002.39
2018-11-28T07:52:11.490Z,1002.36
2018-11-28T07:53:11.479Z,1002.40
2018-11-28T07:54:11.469Z,1002.37
2018-11-28T07:55:11.491Z,1002.39
2018-11-28T07:56:11.442Z,1002.38
2018-11-28T07:57:11.430Z,1002.37
2018-11-28T07:58:11.420Z,1002.42
2018-11-28T07:59:11.404Z,1002.34
2018-11-28T08:00:11.393Z,1002.39
2018-11-28T08:01:11.384Z,1002.37
2018-11-28T08:02:11.368Z,1002.46
2018-11-28T08:03:12.259Z,1002.42
2018-11-28T08:04:11.343Z,1002.41
2018-11-28T08:05:11.331Z,1002.44
2018-11-28T08:06:11.320Z,1002.45
2018-11-28T08:07:11.307Z,1002.50
2018-11-28T08:08:11.300Z,1002.46
2018-11-28T08:09:11.285Z,1002.47
2018-11-28T08:10:11.270Z,1002.49
2018-11-28T08:11:11.261Z,1002.51
2018-11-28T08:12:11.247Z,1002.55
2018-11-28T08:13:11.233Z,1002.57
2018-11-28T08:14:11.227Z,1002.51
2018-11-28T08:15:11.212Z,1002.53
2018-11-28T08:16:11.197Z,1002.59
2018-11-28T08:17:11.185Z,1002.55
2018-11-28T08:18:11.177Z,1002.60
2018-11-28T08:19:11.161Z,1002.60
2018-11-28T08:20:11.147Z,1002.56
2018-11-28T08:21:11.146Z,1002.60
2018-11-28T08:22:11.123Z,1002.54
2018-11-28T08:23:11.115Z,1002.54
2018-11-28T08:24:11.098Z,1002.57
2018-11-28T08:25:12.688Z,1002.57
2018-11-28T08:26:11.074Z,1002.55
2018-11-28T08:27:11.062Z,1002.54
2018-11-28T08:28:11.051Z,1002.52
2018-11-28T08:29:11.038Z,1002.61
2018-11-28T08:30:11.029Z,1002.58
2018-11-28T08:31:11.013Z,1002.59
2018-11-28T08:32:11.209Z,1002.57
2018-11-28T08:33:10.988Z,1002.60
2018-11-28T08:34:11.030Z,1002.58
2018-11-28T08:35:10.971Z,1002.63
2018-11-28T08:36:10.952Z,1002.62
2018-11-28T08:37:10.940Z,1002.58
2018-11-28T08:38:10.932Z,1002.61
2018-11-28T08:39:10.917Z,1002.57
2018-11-28T08:40:10.907Z,1002.61
2018-11-28T08:41:10.893Z,1002.59
2018-11-28T08:42:10.881Z,1002.59
2018-11-28T08:43:10.871Z,1002.55
2018-11-28T08:44:10.856Z,1002.53
2018-11-28T08:45:10.844Z,1002.55
2018-11-28T08:46:10.834Z,1002.56
2018-11-28T08:47:10.825Z,1002.56
2018-11-28T08:48:10.811Z,1002.52
2018-11-28T08:49:10.795Z,1002.57
2018-11-28T08:50:10.790Z,1002.55
2018-11-28T08:51:10.772Z,1002.56
2018-11-28T08:52:10.766Z,1002.52
2018-11-28T08:53:10.749Z,1002.54
2018-11-28T08:54:10.736Z,1002.55
2018-11-28T08:55:10.724Z,1002.56
2018-11-28T08:56:10.711Z,1002.48
2018-11-28T08:57:10.699Z,1002.53
2018-11-28T08:58:10.688Z,1002.47
2018-11-28T08:59:10.675Z,1002.50
2018-11-28T09:00:10.666Z,1002.48
2018-11-28T09:01:10.660Z,1002.49
2018-11-28T09:02:10.645Z,1002.47
2018-11-28T09:03:10.833Z,1002.46
2018-11-28T09:04:10.615Z,1002.49
2018-11-28T09:05:10.603Z,1002.49
2018-11-28T09:06:10.596Z,1002.45
2018-11-28T09:07:10.578Z,1002.45
2018-11-28T09:08:10.770Z,1002.48
2018-11-28T09:09:10.554Z,1002.48
2018-11-28T09:10:10.745Z,1002.45
2018-11-28T09:11:10.539Z,1002.45
2018-11-28T09:12:10.518Z,1002.47
2018-11-28T09:13:10.506Z,1002.47
2018-11-28T09:14:10.495Z,1002.44
2018-11-28T09:15:10.482Z,1002.37
2018-11-28T09:16:10.470Z,1002.39
2018-11-28T09:17:15.146Z,1002.41
2018-11-28T09:18:10.446Z,1002.37
2018-11-28T09:19:10.483Z,1002.33
2018-11-28T09:20:10.420Z,1002.35
2018-11-28T09:21:10.413Z,1002.34
2018-11-28T09:22:10.398Z,1002.30
2018-11-28T09:23:10.386Z,1002.30
2018-11-28T09:24:10.376Z,1002.30
2018-11-28T09:25:10.362Z,1002.35
2018-11-28T09:26:10.350Z,1002.33
2018-11-28T09:27:10.338Z,1002.32
2018-11-28T09:28:10.325Z,1002.36
2018-11-28T09:29:10.315Z,1002.39
2018-11-28T09:30:10.305Z,1002.40
2018-11-28T09:31:10.296Z,1002.36
2018-11-28T09:32:10.279Z,1002.37
2018-11-28T09:33:10.269Z,1002.41
2018-11-28T09:34:10.315Z,1002.38
2018-11-28T09:35:10.243Z,1002.41
2018-11-28T09:36:10.237Z,1002.42
2018-11-28T09:37:10.221Z,1002.40
2018-11-28T09:38:10.211Z,1002.43
2018-11-28T09:39:10.199Z,1002.42
2018-11-28T09:40:10.190Z,1002.46
2018-11-28T09:41:10.178Z,1002.45
2018-11-28T09:42:10.162Z,1002.45
2018-11-28T09:43:10.151Z,1002.46
2018-11-28T09:44:10.144Z,1002.44
2018-11-28T09:45:10.128Z,1002.45
2018-11-28T09:46:10.121Z,1002.42
2018-11-28T09:47:10.106Z,1002.44
2018-11-28T09:48:10.098Z,1002.46
2018-11-28T09:49:10.082Z,1002.42
2018-11-28T09:50:10.128Z,1002.43
2018-11-28T09:51:10.062Z,1002.41
2018-11-28T09:52:10.047Z,1002.39
2018-11-28T09:53:10.038Z,1002.40
2018-11-28T09:54:10.026Z,1002.42
2018-11-28T09:55:10.014Z,1002.40
2018-11-28T09:56:10.006Z,1002.40
2018-11-28T09:57:09.991Z,1002.38
2018-11-28T09:58:10.244Z,1002.39
2018-11-28T09:59:09.969Z,1002.37
2018-11-28T10:00:09.958Z,1002.37
2018-11-28T10:01:09.948Z,1002.33
2018-11-28T10:02:09.938Z,1002.33
2018-11-28T10:03:09.926Z,1002.31
2018-11-28T10:04:09.916Z,1002.35
2018-11-28T10:05:09.904Z,1002.30
2018-11-28T10:06:09.946Z,1002.33
2018-11-28T10:07:09.879Z,1002.28
2018-11-28T10:08:09.869Z,1002.30
2018-11-28T10:09:09.857Z,1002.24
2018-11-28T10:10:09.848Z,1002.31
2018-11-28T10:11:09.836Z,1002.31
2018-11-28T10:12:09.825Z,1002.32
2018-11-28T10:13:09.814Z,1002.32
2018-11-28T10:14:09.806Z,1002.29
2018-11-28T10:15:09.793Z,1002.30
2018-11-28T10:16:09.786Z,1002.31
2018-11-28T10:17:09.770Z,1002.33
2018-11-28T10:18:09.760Z,1002.34
2018-11-28T10:19:09.749Z,1002.31
2018-11-28T10:20:09.740Z,1002.32
2018-11-28T10:21:09.780Z,1002.27
2018-11-28T10:22:09.720Z,1002.28
2018-11-28T10:23:09.708Z,1002.26
2018-11-28T10:24:09.699Z,1002.26
2018-11-28T10:25:09.690Z,1002.26
2018-11-28T10:26:09.674Z,1002.20
2018-11-28T10:27:09.666Z,1002.27
2018-11-28T10:28:09.652Z,1002.23
2018-11-28T10:29:09.646Z,1002.24
2018-11-28T10:30:09.638Z,1002.23
2018-11-28T10:31:09.626Z,1002.22
2018-11-28T10:32:09.612Z,1002.17
2018-11-28T10:33:09.600Z,1002.18
2018-11-28T10:34:09.590Z,1002.16
2018-11-28T10:35:09.583Z,1002.21
2018-11-28T10:36:09.569Z,1002.18
2018-11-28T10:37:09.559Z,1002.16
2018-11-28T10:38:09.590Z,1002.17
2018-11-28T10:39:09.539Z,1002.21
2018-11-28T10:40:09.529Z,1002.23
2018-11-28T10:41:09.521Z,1002.20
2018-11-28T10:42:09.508Z,1002.23
2018-11-28T10:43:09.496Z,1002.19
2018-11-28T10:44:09.493Z,1002.22
2018-11-28T10:45:09.478Z,1002.23
2018-11-28T10:46:09.465Z,1002.20
2018-11-28T10:47:09.455Z,1002.20
2018-11-28T10:48:09.450Z,1002.24
2018-11-28T10:49:09.431Z,1002.21
2018-11-28T10:50:09.427Z,1002.19
2018-11-28T10:51:09.413Z,1002.21
2018-11-28T10:52:09.400Z,1002.15
2018-11-28T10:53:09.394Z,1002.14
2018-11-28T10:54:09.384Z,1002.15
2018-11-28T10:55:09.372Z,1002.12
2018-11-28T10:56:09.359Z,1002.10
2018-11-28T10:57:09.367Z,1002.11
2018-11-28T10:58:09.342Z,1002.10
2018-11-28T10:59:09.334Z,1002.08
2018-11-28T11:00:09.320Z,1001.98
2018-11-28T11:01:09.305Z,1002.00
2018-11-28T11:02:09.296Z,1001.99
2018-11-28T11:03:09.290Z,1002.01
2018-11-28T11:04:09.273Z,1002.00
2018-11-28T11:05:09.266Z,1002.03
2018-11-28T11:06:09.253Z,1001.97
2018-11-28T11:07:09.243Z,1001.97
2018-11-28T11:08:09.240Z,1001.97
2018-11-28T11:09:09.220Z,1001.96
2018-11-28T11:10:09.208Z,1002.00
2018-11-28T11:11:09.201Z,1001.94
2018-11-28T11:12:09.187Z,1001.94
2018-11-28T11:13:09.176Z,1001.91
2018-11-28T11:14:09.279Z,1001.91
2018-11-28T11:15:09.155Z,1001.92
2018-11-28T11:16:09.347Z,1001.92
2018-11-28T11:17:09.133Z,1001.97
2018-11-28T11:18:10.773Z,1001.95
2018-11-28T11:19:09.112Z,1001.92
2018-11-28T11:20:09.103Z,1001.94
2018-11-28T11:21:09.555Z,1001.90
2018-11-28T11:22:09.082Z,1001.93
2018-11-28T11:23:09.097Z,1001.94
2018-11-28T11:24:09.057Z,1001.87
2018-11-28T11:25:09.048Z,1001.87
2018-11-28T11:26:09.042Z,1001.86
2018-11-28T11:27:09.025Z,1001.82
2018-11-28T11:28:09.020Z,1001.80
2018-11-28T11:29:09.007Z,1001.84
2018-11-28T11:30:08.997Z,1001.82
2018-11-28T11:31:08.982Z,1001.85
2018-11-28T11:32:09.029Z,1001.85
2018-11-28T11:33:08.963Z,1001.86
2018-11-28T11:34:08.951Z,1001.86
2018-11-28T11:35:08.941Z,1001.85
2018-11-28T11:36:08.934Z,1001.87
2018-11-28T11:37:08.921Z,1001.80
2018-11-28T11:38:08.985Z,1001.84
2018-11-28T11:39:08.905Z,1001.83
2018-11-28T11:40:08.895Z,1001.81
2018-11-28T11:41:08.884Z,1001.82
2018-11-28T11:42:08.874Z,1001.78
2018-11-28T11:43:08.867Z,1001.73
2018-11-28T11:44:08.860Z,1001.77
2018-11-28T11:45:08.846Z,1001.81
2018-11-28T11:46:08.836Z,1001.74
2018-11-28T11:47:08.828Z,1001.74
2018-11-28T11:48:08.819Z,1001.79
2018-11-28T11:49:08.810Z,1001.76
2018-11-28T11:50:08.800Z,1001.73
2018-11-28T11:51:08.793Z,1001.73
2018-11-28T11:52:08.784Z,1001.71
2018-11-28T11:53:08.770Z,1001.72
2018-11-28T11:54:08.761Z,1001.75
2018-11-28T11:55:08.757Z,1001.76
2018-11-28T11:56:08.741Z,1001.74
2018-11-28T11:57:08.737Z,1001.72
2018-11-28T11:58:08.927Z,1001.80
2018-11-28T11:59:08.719Z,1001.72
2018-11-28T12:00:08.706Z,1001.69
2018-11-28T12:01:08.694Z,1001.74
2018-11-28T12:02:08.683Z,1001.73
2018-11-28T12:03:08.674Z,1001.62
2018-11-28T12:04:08.663Z,1001.62
2018-11-28T12:05:08.657Z,1001.63
2018-11-28T12:06:08.645Z,1001.58